Terminal Aerodrome Forecast
Issued by NWS

Home | Current Version | Previous Version | Text Only | Print | Product List | Glossary On
Versions: 1 2 3 4 5 6 7 8 9 10 11 12 13 14 15 16 17 18 19 20 21 22
000
FTUS46 KLOX 261744
TAFSBP
TAF
KSBP 261744Z 2618/2718 30007KT P6SM SKC
     FM262100 31012KT P6SM SKC
     FM270300 30006KT P6SM BKN012
     FM270700 VRB03KT P6SM OVC012
     FM271200 VRB03KT 5SM BR OVC009
     FM271600 31010KT P6SM BKN014=

USA.gov is the U.S. government's official web portal to all federal, state and local government web resources and services.